createdAt,value
2017-10-17T00:00:35.815Z,14.50
2017-10-17T00:01:36.445Z,14.51
2017-10-17T00:02:37.055Z,14.47
2017-10-17T00:03:37.662Z,14.45
2017-10-17T00:04:38.270Z,14.52
2017-10-17T00:05:38.876Z,14.57
2017-10-17T00:06:39.470Z,14.55
2017-10-17T00:07:40.079Z,14.50
2017-10-17T00:08:40.681Z,14.54
2017-10-17T00:09:41.289Z,14.60
2017-10-17T00:10:41.901Z,14.66
2017-10-17T00:11:42.501Z,14.65
2017-10-17T00:12:43.112Z,14.57
2017-10-17T00:13:43.719Z,14.65
2017-10-17T00:14:44.324Z,14.63
2017-10-17T00:15:44.950Z,14.60
2017-10-17T00:16:45.543Z,14.73
2017-10-17T00:17:46.153Z,14.60
2017-10-17T00:18:46.747Z,14.52
2017-10-17T00:19:47.351Z,14.66
2017-10-17T00:20:47.956Z,14.62
2017-10-17T00:21:48.572Z,14.65
2017-10-17T00:22:49.164Z,14.62
2017-10-17T00:23:49.764Z,14.63
2017-10-17T00:24:50.372Z,14.60
2017-10-17T00:25:50.971Z,14.58
2017-10-17T00:26:51.579Z,14.62
2017-10-17T00:27:52.192Z,14.54
2017-10-17T00:28:52.802Z,14.44
2017-10-17T00:29:53.410Z,14.45
2017-10-17T00:30:54.012Z,14.50
2017-10-17T00:31:54.608Z,14.39
2017-10-17T00:32:55.209Z,14.36
2017-10-17T00:33:55.817Z,14.26
2017-10-17T00:34:56.424Z,14.25
2017-10-17T00:35:57.025Z,14.29
2017-10-17T00:36:57.655Z,14.36
2017-10-17T00:37:58.241Z,14.37
2017-10-17T00:38:58.842Z,14.32
2017-10-17T00:39:59.449Z,14.33
2017-10-17T00:41:00.062Z,14.36
2017-10-17T00:42:00.666Z,14.37
2017-10-17T00:43:01.285Z,14.47
2017-10-17T00:44:01.893Z,14.44
2017-10-17T00:45:02.496Z,14.44
2017-10-17T00:46:03.106Z,14.40
2017-10-17T00:47:03.705Z,14.51
2017-10-17T00:48:04.304Z,14.45
2017-10-17T00:49:04.917Z,14.43
2017-10-17T00:50:05.537Z,14.45
2017-10-17T00:51:06.132Z,14.30
2017-10-17T00:52:06.738Z,14.32
2017-10-17T00:53:07.371Z,14.39
2017-10-17T00:54:07.956Z,14.43
2017-10-17T00:55:08.570Z,14.35
2017-10-17T00:56:09.171Z,14.40
2017-10-17T00:57:09.796Z,14.35
2017-10-17T00:58:10.389Z,14.29
2017-10-17T00:59:10.998Z,14.32
2017-10-17T01:00:11.604Z,14.36
2017-10-17T01:01:12.205Z,14.30
2017-10-17T01:02:12.803Z,14.30
2017-10-17T01:03:13.414Z,14.25
2017-10-17T01:04:14.029Z,14.26
2017-10-17T01:05:14.635Z,14.32
2017-10-17T01:06:15.245Z,14.23
2017-10-17T01:07:15.845Z,14.32
2017-10-17T01:08:16.454Z,14.25
2017-10-17T01:09:17.058Z,14.33
2017-10-17T01:10:17.658Z,14.26
2017-10-17T01:11:18.264Z,14.19
2017-10-17T01:12:18.864Z,14.23
2017-10-17T01:13:19.473Z,14.21
2017-10-17T01:14:20.081Z,14.15
2017-10-17T01:15:20.691Z,14.15
2017-10-17T01:16:21.300Z,14.19
2017-10-17T01:17:21.897Z,14.18
2017-10-17T01:18:22.511Z,14.14
2017-10-17T01:19:23.122Z,14.08
2017-10-17T01:20:23.728Z,14.21
2017-10-17T01:21:24.333Z,14.17
2017-10-17T01:22:24.933Z,14.17
2017-10-17T01:23:25.545Z,14.14
2017-10-17T01:24:26.149Z,14.11
2017-10-17T01:25:26.742Z,14.18
2017-10-17T01:26:27.350Z,14.10
2017-10-17T01:27:27.962Z,14.14
2017-10-17T01:28:28.571Z,14.14
2017-10-17T01:29:29.177Z,14.11
2017-10-17T01:30:29.789Z,14.15
2017-10-17T01:31:30.388Z,14.14
2017-10-17T01:32:31.005Z,14.08
2017-10-17T01:33:31.621Z,14.11
2017-10-17T01:34:32.228Z,13.96
2017-10-17T01:35:32.837Z,14.07
2017-10-17T01:36:33.448Z,14.00
2017-10-17T01:37:34.057Z,13.94
2017-10-17T01:38:34.656Z,14.03
2017-10-17T01:39:35.265Z,13.93
2017-10-17T01:40:35.873Z,13.96
2017-10-17T01:41:36.483Z,13.89
2017-10-17T01:42:37.078Z,13.94
2017-10-17T01:43:37.679Z,13.93
2017-10-17T01:44:38.286Z,13.93
2017-10-17T01:45:38.894Z,13.90
2017-10-17T01:46:39.503Z,13.87
2017-10-17T01:47:40.111Z,13.93
2017-10-17T01:48:40.710Z,13.78
2017-10-17T01:49:41.318Z,13.79
2017-10-17T01:50:41.935Z,13.77
2017-10-17T01:51:42.532Z,13.74
2017-10-17T01:52:43.141Z,13.74
2017-10-17T01:53:43.740Z,13.75
2017-10-17T01:54:44.349Z,13.72
2017-10-17T01:55:44.958Z,13.61
2017-10-17T01:56:45.557Z,13.63
2017-10-17T01:57:46.169Z,13.61
2017-10-17T01:58:46.777Z,13.71
2017-10-17T01:59:47.387Z,13.59
2017-10-17T02:00:48.000Z,13.59
2017-10-17T02:01:48.613Z,13.63
2017-10-17T02:02:49.204Z,13.66
2017-10-17T02:03:49.816Z,13.61
2017-10-17T02:04:50.425Z,13.63
2017-10-17T02:05:51.035Z,13.60
2017-10-17T02:06:51.640Z,13.71
2017-10-17T02:07:52.244Z,13.69
2017-10-17T02:08:52.849Z,13.56
2017-10-17T02:09:53.446Z,13.61
2017-10-17T02:10:54.047Z,13.57
2017-10-17T02:11:54.658Z,13.52
2017-10-17T02:12:55.265Z,13.57
2017-10-17T02:13:55.863Z,13.61
2017-10-17T02:14:56.469Z,13.59
2017-10-17T02:15:57.061Z,13.59
2017-10-17T02:16:57.669Z,13.49
2017-10-17T02:17:58.274Z,13.46
2017-10-17T02:18:58.879Z,13.50
2017-10-17T02:19:59.488Z,13.50
2017-10-17T02:21:00.086Z,13.50
2017-10-17T02:22:00.696Z,13.44
2017-10-17T02:23:01.303Z,13.45
2017-10-17T02:24:01.906Z,13.46
2017-10-17T02:25:02.514Z,13.45
2017-10-17T02:26:03.113Z,13.44
2017-10-17T02:27:03.710Z,13.49
2017-10-17T02:28:04.310Z,13.33
2017-10-17T02:29:04.922Z,13.36
2017-10-17T02:30:05.533Z,13.30
2017-10-17T02:31:06.130Z,13.35
2017-10-17T02:32:06.735Z,13.33
2017-10-17T02:33:07.350Z,13.31
2017-10-17T02:34:07.958Z,13.36
2017-10-17T02:35:08.566Z,13.39
2017-10-17T02:36:09.179Z,13.36
2017-10-17T02:37:09.778Z,13.35
2017-10-17T02:38:10.378Z,13.36
2017-10-17T02:39:10.986Z,13.33
2017-10-17T02:40:11.593Z,13.36
2017-10-17T02:41:12.210Z,13.26
2017-10-17T02:42:12.815Z,13.26
2017-10-17T02:43:13.412Z,13.19
2017-10-17T02:44:14.024Z,13.38
2017-10-17T02:45:14.630Z,13.27
2017-10-17T02:46:15.236Z,13.23
2017-10-17T02:47:15.825Z,13.27
2017-10-17T02:48:16.426Z,13.23
2017-10-17T02:49:17.028Z,13.18
2017-10-17T02:50:17.633Z,13.20
2017-10-17T02:51:18.238Z,13.26
2017-10-17T02:52:18.849Z,13.22
2017-10-17T02:53:19.448Z,13.19
2017-10-17T02:54:20.063Z,13.26
2017-10-17T02:55:20.658Z,13.31
2017-10-17T02:56:21.268Z,13.31
2017-10-17T02:57:21.883Z,13.36
2017-10-17T02:58:22.487Z,13.35
2017-10-17T02:59:23.084Z,13.33
2017-10-17T03:00:23.693Z,13.36
2017-10-17T03:01:24.302Z,13.33
2017-10-17T03:02:24.898Z,13.33
2017-10-17T03:03:25.509Z,13.22
2017-10-17T03:04:26.119Z,13.35
2017-10-17T03:05:26.724Z,13.31
2017-10-17T03:06:27.329Z,13.33
2017-10-17T03:07:27.933Z,13.36
2017-10-17T03:08:28.544Z,13.33
2017-10-17T03:09:29.139Z,13.35
2017-10-17T03:10:29.749Z,13.36
2017-10-17T03:11:30.363Z,13.38
2017-10-17T03:12:30.963Z,13.35
2017-10-17T03:13:31.572Z,13.35
2017-10-17T03:14:32.182Z,13.30
2017-10-17T03:15:32.792Z,13.33
2017-10-17T03:16:33.403Z,13.25
2017-10-17T03:17:34.002Z,13.20
2017-10-17T03:18:34.610Z,13.18
2017-10-17T03:19:35.226Z,13.19
2017-10-17T03:20:35.826Z,13.22
2017-10-17T03:21:36.435Z,13.20
2017-10-17T03:22:37.046Z,13.22
2017-10-17T03:23:37.657Z,13.26
2017-10-17T03:24:38.263Z,13.22
2017-10-17T03:25:38.870Z,13.10
2017-10-17T03:26:39.470Z,13.12
2017-10-17T03:27:40.079Z,13.13
2017-10-17T03:28:40.689Z,13.19
2017-10-17T03:29:41.297Z,13.15
2017-10-17T03:30:41.898Z,13.19
2017-10-17T03:31:42.502Z,13.15
2017-10-17T03:32:43.108Z,13.05
2017-10-17T03:33:43.718Z,13.12
2017-10-17T03:34:44.326Z,13.04
2017-10-17T03:35:44.931Z,13.07
2017-10-17T03:36:45.538Z,12.98
2017-10-17T03:37:46.143Z,13.07
2017-10-17T03:38:46.757Z,13.02
2017-10-17T03:39:47.364Z,13.04
2017-10-17T03:40:47.976Z,13.00
2017-10-17T03:41:48.579Z,12.98
2017-10-17T03:42:49.181Z,13.00
2017-10-17T03:43:49.792Z,12.98
2017-10-17T03:44:50.398Z,13.07
2017-10-17T03:45:51.008Z,12.98
2017-10-17T03:46:51.615Z,13.05
2017-10-17T03:47:52.227Z,13.00
2017-10-17T03:48:52.834Z,13.02
2017-10-17T03:49:53.444Z,12.97
2017-10-17T03:50:54.058Z,13.10
2017-10-17T03:51:54.661Z,12.95
2017-10-17T03:52:55.268Z,13.00
2017-10-17T03:53:55.869Z,12.95
2017-10-17T03:54:56.477Z,12.94
2017-10-17T03:55:57.087Z,13.00
2017-10-17T03:56:57.694Z,12.87
2017-10-17T03:57:58.294Z,12.98
2017-10-17T03:58:58.906Z,12.95
2017-10-17T03:59:59.510Z,13.00
2017-10-17T04:01:00.106Z,12.93
2017-10-17T04:02:00.707Z,12.86
2017-10-17T04:03:01.311Z,12.98
2017-10-17T04:04:01.912Z,13.00
2017-10-17T04:05:02.509Z,12.87
2017-10-17T04:06:03.115Z,12.95
2017-10-17T04:07:03.724Z,12.94
2017-10-17T04:08:04.350Z,12.94
2017-10-17T04:09:04.934Z,12.87
2017-10-17T04:10:05.544Z,12.94
2017-10-17T04:11:06.153Z,12.90
2017-10-17T04:12:06.761Z,12.87
2017-10-17T04:13:07.370Z,12.87
2017-10-17T04:14:07.983Z,12.85
2017-10-17T04:15:08.580Z,12.83
2017-10-17T04:16:09.185Z,12.87
2017-10-17T04:17:09.797Z,12.83
2017-10-17T04:18:10.402Z,12.85
2017-10-17T04:19:11.012Z,12.86
2017-10-17T04:20:11.610Z,12.87
2017-10-17T04:21:12.212Z,12.93
2017-10-17T04:22:12.811Z,12.90
2017-10-17T04:23:13.416Z,12.97
2017-10-17T04:24:14.010Z,12.93
2017-10-17T04:25:14.612Z,12.97
2017-10-17T04:26:15.220Z,12.95
2017-10-17T04:27:15.829Z,12.93
2017-10-17T04:28:16.426Z,12.95
2017-10-17T04:29:17.042Z,12.94
2017-10-17T04:30:17.647Z,12.89
2017-10-17T04:31:18.250Z,12.86
2017-10-17T04:32:18.859Z,12.85
2017-10-17T04:33:19.468Z,12.87
2017-10-17T04:34:20.080Z,12.93
2017-10-17T04:35:20.678Z,12.85
2017-10-17T04:36:21.286Z,12.89
2017-10-17T04:37:21.895Z,12.87
2017-10-17T04:38:22.499Z,12.93
2017-10-17T04:39:23.098Z,12.97
2017-10-17T04:40:23.710Z,12.94
2017-10-17T04:41:24.304Z,12.98
2017-10-17T04:42:24.914Z,12.90
2017-10-17T04:43:25.531Z,12.94
2017-10-17T04:44:26.129Z,13.00
2017-10-17T04:45:26.737Z,12.98
2017-10-17T04:46:27.346Z,13.00
2017-10-17T04:47:27.955Z,12.95
2017-10-17T04:48:28.561Z,13.01
2017-10-17T04:49:29.168Z,13.01
2017-10-17T04:50:29.777Z,13.04
2017-10-17T04:51:30.388Z,13.07
2017-10-17T04:52:31.002Z,13.07
2017-10-17T04:53:31.611Z,13.04
2017-10-17T04:54:32.221Z,13.02
2017-10-17T04:55:32.822Z,12.98
2017-10-17T04:56:33.430Z,13.13
2017-10-17T04:57:34.026Z,13.19
2017-10-17T04:58:34.637Z,13.22
2017-10-17T04:59:35.247Z,13.10
2017-10-17T05:00:35.858Z,13.07
2017-10-17T05:01:36.454Z,13.19
2017-10-17T05:02:37.062Z,13.20
2017-10-17T05:03:37.677Z,13.19
2017-10-17T05:04:38.278Z,13.27
2017-10-17T05:05:38.890Z,13.36
2017-10-17T05:06:39.494Z,13.31
2017-10-17T05:07:40.110Z,13.38
2017-10-17T05:08:40.712Z,13.36
2017-10-17T05:09:41.316Z,13.36
2017-10-17T05:10:41.916Z,13.38
2017-10-17T05:11:42.526Z,13.41
2017-10-17T05:12:43.145Z,13.42
2017-10-17T05:13:43.749Z,13.45
2017-10-17T05:14:44.355Z,13.45
2017-10-17T05:15:44.954Z,13.44
2017-10-17T05:16:45.551Z,13.45
2017-10-17T05:17:46.161Z,13.44
2017-10-17T05:18:46.759Z,13.39
2017-10-17T05:19:47.366Z,13.39
2017-10-17T05:20:47.978Z,13.31
2017-10-17T05:21:48.591Z,13.35
2017-10-17T05:22:49.188Z,13.36
2017-10-17T05:23:49.799Z,13.30
2017-10-17T05:24:50.407Z,13.35
2017-10-17T05:25:51.022Z,13.35
2017-10-17T05:26:51.634Z,13.31
2017-10-17T05:27:52.231Z,13.26
2017-10-17T05:28:52.840Z,13.36
2017-10-17T05:29:53.449Z,13.33
2017-10-17T05:30:54.060Z,13.38
2017-10-17T05:31:54.667Z,13.35
2017-10-17T05:32:55.278Z,13.35
2017-10-17T05:33:55.886Z,13.35
2017-10-17T05:34:56.490Z,13.39
2017-10-17T05:35:57.100Z,13.45
2017-10-17T05:36:57.700Z,13.39
2017-10-17T05:37:58.303Z,13.44
2017-10-17T05:38:58.915Z,13.49
2017-10-17T05:39:59.527Z,13.41
2017-10-17T05:41:00.138Z,13.39
2017-10-17T05:42:00.745Z,13.45
2017-10-17T05:43:01.340Z,13.45
2017-10-17T05:44:01.944Z,13.49
2017-10-17T05:45:02.538Z,13.53
2017-10-17T05:46:03.153Z,13.59
2017-10-17T05:47:03.752Z,13.57
2017-10-17T05:48:04.358Z,13.64
2017-10-17T05:49:04.969Z,13.57
2017-10-17T05:50:05.577Z,13.64
2017-10-17T05:51:06.187Z,13.71
2017-10-17T05:52:06.818Z,13.75
2017-10-17T05:53:07.392Z,13.71
2017-10-17T05:54:08.004Z,13.79
2017-10-17T05:55:08.603Z,13.86
2017-10-17T05:56:09.213Z,13.89
2017-10-17T05:57:09.825Z,13.96
2017-10-17T05:58:10.425Z,13.96
2017-10-17T05:59:11.038Z,13.96
2017-10-17T06:00:11.658Z,14.02
2017-10-17T06:01:12.292Z,14.14
2017-10-17T06:02:12.902Z,14.11
2017-10-17T06:03:13.505Z,14.12
2017-10-17T06:04:14.135Z,14.15
2017-10-17T06:05:14.747Z,14.12
2017-10-17T06:06:15.371Z,14.14
2017-10-17T06:07:15.986Z,14.11
2017-10-17T06:08:16.597Z,14.05
2017-10-17T06:09:17.212Z,14.08
2017-10-17T06:10:17.824Z,14.11
2017-10-17T06:11:18.434Z,14.03
2017-10-17T06:12:19.051Z,14.05
2017-10-17T06:13:19.667Z,14.05
2017-10-17T06:14:20.275Z,14.08
2017-10-17T06:15:20.893Z,14.10
2017-10-17T06:16:21.509Z,14.21
2017-10-17T06:17:22.121Z,14.17
2017-10-17T06:18:22.965Z,14.18
2017-10-17T06:19:23.482Z,14.14
2017-10-17T06:20:24.102Z,14.21
2017-10-17T06:21:24.708Z,14.23
2017-10-17T06:22:25.315Z,14.23
2017-10-17T06:23:25.931Z,14.25
2017-10-17T06:24:26.547Z,14.26
2017-10-17T06:25:27.159Z,14.32
2017-10-17T06:26:27.778Z,14.32
2017-10-17T06:27:29.378Z,14.26
2017-10-17T06:28:29.988Z,14.35
2017-10-17T06:29:30.598Z,14.36
2017-10-17T06:30:31.214Z,14.33
2017-10-17T06:31:31.823Z,14.36
2017-10-17T06:32:32.433Z,14.37
2017-10-17T06:33:33.075Z,14.37
2017-10-17T06:34:33.654Z,14.45
2017-10-17T06:35:34.271Z,14.39
2017-10-17T06:36:34.889Z,14.43
2017-10-17T06:37:35.496Z,14.47
2017-10-17T06:38:36.100Z,14.48
2017-10-17T06:39:36.716Z,14.44
2017-10-17T06:40:37.329Z,14.50
2017-10-17T06:41:37.931Z,14.45
2017-10-17T06:42:38.550Z,14.57
2017-10-17T06:43:39.213Z,14.52
2017-10-17T06:44:39.823Z,14.57
2017-10-17T06:45:40.427Z,14.57
2017-10-17T06:46:41.043Z,14.57
2017-10-17T06:47:41.652Z,14.55
2017-10-17T06:48:42.268Z,14.62
2017-10-17T06:49:42.883Z,14.68
2017-10-17T06:50:43.497Z,14.68
2017-10-17T06:51:44.109Z,14.73
2017-10-17T06:52:44.716Z,14.75
2017-10-17T06:53:45.329Z,14.72
2017-10-17T06:54:45.948Z,14.73
2017-10-17T06:55:46.550Z,14.84
2017-10-17T06:56:47.155Z,14.85
2017-10-17T06:57:47.772Z,14.84
2017-10-17T06:58:48.382Z,14.81
2017-10-17T06:59:48.993Z,14.91
2017-10-17T07:00:49.613Z,14.88
2017-10-17T07:01:50.220Z,14.99
2017-10-17T07:02:50.836Z,14.96
2017-10-17T07:03:51.449Z,15.04
2017-10-17T07:04:52.064Z,15.03
2017-10-17T07:05:52.680Z,15.06
2017-10-17T07:06:53.292Z,15.09
2017-10-17T07:07:53.897Z,15.07
2017-10-17T07:08:54.513Z,15.01
2017-10-17T07:09:55.115Z,15.11
2017-10-17T07:10:55.722Z,15.19
2017-10-17T07:11:56.338Z,15.25
2017-10-17T07:12:56.943Z,15.22
2017-10-17T07:13:57.553Z,15.19
2017-10-17T07:14:58.167Z,15.24
2017-10-17T07:15:58.778Z,15.24
2017-10-17T07:16:59.384Z,15.29
2017-10-17T07:17:59.986Z,15.31
2017-10-17T07:19:00.602Z,15.36
2017-10-17T07:20:01.242Z,15.36
2017-10-17T07:21:01.822Z,15.31
2017-10-17T07:22:02.439Z,15.36
2017-10-17T07:23:03.044Z,15.40
2017-10-17T07:24:03.661Z,15.44
2017-10-17T07:25:04.275Z,15.50
2017-10-17T07:26:04.877Z,15.47
2017-10-17T07:27:05.490Z,15.55
2017-10-17T07:28:06.085Z,15.61
2017-10-17T07:29:06.706Z,15.64
2017-10-17T07:30:07.325Z,15.68
2017-10-17T07:31:07.943Z,15.69
2017-10-17T07:32:08.560Z,15.67
2017-10-17T07:33:09.168Z,15.71
2017-10-17T07:34:09.769Z,15.69
2017-10-17T07:35:10.386Z,15.68
2017-10-17T07:36:10.994Z,15.73
2017-10-17T07:37:11.597Z,15.79
2017-10-17T07:38:12.215Z,15.86
2017-10-17T07:39:12.833Z,15.92
2017-10-17T07:40:13.434Z,15.86
2017-10-17T07:41:14.050Z,15.94
2017-10-17T07:42:14.655Z,16.02
2017-10-17T07:43:15.288Z,16.07
2017-10-17T07:44:15.908Z,16.13
2017-10-17T07:45:16.528Z,16.13
2017-10-17T07:46:17.146Z,16.25
2017-10-17T07:47:17.762Z,16.16
2017-10-17T07:48:18.382Z,16.24
2017-10-17T07:49:18.986Z,16.31
2017-10-17T07:50:19.610Z,16.29
2017-10-17T07:51:20.229Z,16.31
2017-10-17T07:52:20.845Z,16.33
2017-10-17T07:53:21.467Z,16.36
2017-10-17T07:54:22.082Z,16.43
2017-10-17T07:55:22.698Z,16.39
2017-10-17T07:56:23.313Z,16.36
2017-10-17T07:57:23.931Z,16.41
2017-10-17T07:58:24.540Z,16.50
2017-10-17T07:59:25.167Z,16.51
2017-10-17T08:00:25.772Z,16.49
2017-10-17T08:01:26.384Z,16.54
2017-10-17T08:02:27.006Z,16.63
2017-10-17T08:03:27.619Z,16.63
2017-10-17T08:04:28.223Z,16.66
2017-10-17T08:05:28.840Z,16.60
2017-10-17T08:06:29.450Z,16.63
2017-10-17T08:07:30.066Z,16.66
2017-10-17T08:08:30.671Z,16.66
2017-10-17T08:09:31.291Z,16.75
2017-10-17T08:10:31.909Z,16.75
2017-10-17T08:11:32.522Z,16.82
2017-10-17T08:12:33.126Z,16.82
2017-10-17T08:13:33.741Z,16.93
2017-10-17T08:14:34.359Z,16.96
2017-10-17T08:15:34.973Z,16.93
2017-10-17T08:16:35.578Z,16.91
2017-10-17T08:17:36.193Z,16.90
2017-10-17T08:18:36.800Z,16.97
2017-10-17T08:19:37.417Z,17.11
2017-10-17T08:20:38.021Z,17.08
2017-10-17T08:21:38.643Z,17.18
2017-10-17T08:22:39.250Z,17.15
2017-10-17T08:23:39.861Z,17.26
2017-10-17T08:24:40.469Z,17.24
2017-10-17T08:25:41.074Z,17.26
2017-10-17T08:26:41.691Z,17.24
2017-10-17T08:27:42.310Z,17.16
2017-10-17T08:28:42.928Z,17.41
2017-10-17T08:29:43.540Z,17.45
2017-10-17T08:30:44.142Z,17.48
2017-10-17T08:31:44.761Z,17.49
2017-10-17T08:32:45.382Z,17.54
2017-10-17T08:33:45.995Z,17.63
2017-10-17T08:34:46.609Z,17.56
2017-10-17T08:35:47.227Z,17.60
2017-10-17T08:36:47.886Z,17.63
2017-10-17T08:37:48.509Z,17.72
2017-10-17T08:38:49.133Z,17.68
2017-10-17T08:39:49.739Z,17.72
2017-10-17T08:40:50.359Z,17.85
2017-10-17T08:41:50.975Z,17.85
2017-10-17T08:42:51.589Z,17.82
2017-10-17T08:43:52.213Z,17.83
2017-10-17T08:44:52.831Z,17.93
2017-10-17T08:45:53.441Z,17.87
2017-10-17T08:46:54.057Z,17.83
2017-10-17T08:47:54.677Z,17.86
2017-10-17T08:48:55.293Z,18.00
2017-10-17T08:49:55.911Z,18.07
2017-10-17T08:50:56.536Z,18.14
2017-10-17T08:51:57.155Z,18.16
2017-10-17T08:52:57.769Z,18.22
2017-10-17T08:53:58.385Z,18.27
2017-10-17T08:54:59.009Z,18.34
2017-10-17T08:55:59.830Z,18.43
2017-10-17T08:57:00.449Z,18.53
2017-10-17T08:58:01.075Z,18.69
2017-10-17T08:59:01.686Z,18.68
2017-10-17T09:00:02.306Z,18.69
2017-10-17T09:01:02.929Z,18.68
2017-10-17T09:02:03.548Z,18.80
2017-10-17T09:03:04.170Z,18.92
2017-10-17T09:04:04.788Z,18.90
2017-10-17T09:05:05.411Z,19.00
2017-10-17T09:06:06.030Z,19.00
2017-10-17T09:07:06.648Z,19.12
2017-10-17T09:08:07.270Z,19.27
2017-10-17T09:09:07.894Z,19.25
2017-10-17T09:10:08.515Z,19.29
2017-10-17T09:11:09.217Z,19.36
2017-10-17T09:12:10.025Z,19.33
2017-10-17T09:13:10.647Z,19.43
2017-10-17T09:14:11.265Z,19.49
2017-10-17T09:15:11.887Z,19.44
2017-10-17T09:16:12.506Z,19.49
2017-10-17T09:17:13.126Z,19.48
2017-10-17T09:18:13.755Z,19.69
2017-10-17T09:19:14.368Z,19.81
2017-10-17T09:20:14.991Z,19.80
2017-10-17T09:21:15.609Z,19.94
2017-10-17T09:22:16.218Z,19.92
2017-10-17T09:23:16.839Z,19.92
2017-10-17T09:24:17.449Z,20.04
2017-10-17T09:25:18.074Z,20.10
2017-10-17T09:26:18.690Z,20.31
2017-10-17T09:27:19.323Z,20.44
2017-10-17T09:28:19.943Z,20.59
2017-10-17T09:29:20.554Z,20.67
2017-10-17T09:30:21.175Z,20.84
2017-10-17T09:31:21.794Z,21.00
2017-10-17T09:32:22.413Z,21.20
2017-10-17T09:33:23.053Z,21.20
2017-10-17T09:34:23.660Z,21.33
2017-10-17T09:35:24.284Z,21.54
2017-10-17T09:36:24.904Z,21.76
2017-10-17T09:37:25.524Z,21.73
2017-10-17T09:38:26.148Z,21.72
2017-10-17T09:39:26.771Z,21.65
2017-10-17T09:40:27.409Z,21.79
2017-10-17T09:41:28.024Z,21.89
2017-10-17T09:42:28.715Z,21.98
2017-10-17T09:43:29.323Z,22.03
2017-10-17T09:44:29.944Z,22.20
2017-10-17T09:45:30.570Z,22.21
2017-10-17T09:46:31.196Z,22.31
2017-10-17T09:47:31.814Z,22.35
2017-10-17T09:48:32.446Z,22.47
2017-10-17T09:49:33.075Z,22.28
2017-10-17T09:50:33.719Z,22.36
2017-10-17T09:51:34.316Z,22.47
2017-10-17T09:52:34.955Z,22.51
2017-10-17T09:53:35.566Z,22.50
2017-10-17T09:54:36.181Z,22.50
2017-10-17T09:55:36.810Z,22.38
2017-10-17T09:56:37.419Z,22.44
2017-10-17T09:57:38.030Z,22.47
2017-10-17T09:58:38.654Z,22.48
2017-10-17T09:59:39.277Z,22.55
2017-10-17T10:00:39.900Z,22.54
2017-10-17T10:01:40.527Z,22.70
2017-10-17T10:02:41.149Z,22.68
2017-10-17T10:03:41.768Z,22.75
2017-10-17T10:04:42.394Z,22.69
2017-10-17T10:05:43.008Z,22.81
2017-10-17T10:06:43.640Z,22.84
2017-10-17T10:07:44.254Z,22.81
2017-10-17T10:08:44.869Z,22.88
2017-10-17T10:09:45.489Z,22.93
2017-10-17T10:10:46.112Z,22.99
2017-10-17T10:11:46.738Z,22.94
2017-10-17T10:12:47.362Z,23.15
2017-10-17T10:13:47.983Z,23.34
2017-10-17T10:14:48.600Z,23.32
2017-10-17T10:15:49.222Z,23.40
2017-10-17T10:16:49.847Z,23.58
2017-10-17T10:17:50.468Z,23.62
2017-10-17T10:18:51.088Z,23.79
2017-10-17T10:19:51.707Z,23.87
2017-10-17T10:20:52.324Z,23.84
2017-10-17T10:21:52.939Z,23.80
2017-10-17T10:22:53.560Z,23.59
2017-10-17T10:23:54.194Z,23.53
2017-10-17T10:24:54.802Z,23.41
2017-10-17T10:25:55.424Z,23.41
2017-10-17T10:26:56.066Z,23.50
2017-10-17T10:27:56.668Z,23.65
2017-10-17T10:28:57.283Z,23.50
2017-10-17T10:29:57.896Z,23.41
2017-10-17T10:30:58.521Z,23.25
2017-10-17T10:32:00.125Z,23.12
2017-10-17T10:33:00.751Z,23.18
2017-10-17T10:34:01.385Z,23.16
2017-10-17T10:35:02.003Z,23.23
2017-10-17T10:36:02.626Z,23.15
2017-10-17T10:37:03.251Z,23.28
2017-10-17T10:38:03.860Z,23.35
2017-10-17T10:39:04.486Z,23.50
2017-10-17T10:40:05.095Z,23.69
2017-10-17T10:41:05.720Z,23.87
2017-10-17T10:42:06.356Z,23.94
2017-10-17T10:43:06.977Z,24.05
2017-10-17T10:44:07.608Z,23.90
2017-10-17T10:45:08.223Z,23.99
2017-10-17T10:46:09.482Z,24.08
2017-10-17T10:47:10.107Z,24.13
2017-10-17T10:48:10.720Z,24.21
2017-10-17T10:49:11.343Z,24.31
2017-10-17T10:50:11.979Z,24.39
2017-10-17T10:51:12.608Z,24.33
2017-10-17T10:52:13.236Z,24.24
2017-10-17T10:53:13.943Z,24.26
2017-10-17T10:54:14.567Z,24.31
2017-10-17T10:55:15.183Z,24.41
2017-10-17T10:56:15.796Z,24.41
2017-10-17T10:57:16.417Z,24.39
2017-10-17T10:58:17.044Z,24.48
2017-10-17T10:59:17.677Z,24.48
2017-10-17T11:00:18.318Z,24.53
2017-10-17T11:01:19.138Z,24.64
2017-10-17T11:02:19.776Z,24.64
2017-10-17T11:03:20.414Z,24.73
2017-10-17T11:04:21.044Z,24.66
2017-10-17T11:05:21.656Z,24.70
2017-10-17T11:06:22.293Z,24.68
2017-10-17T11:07:22.929Z,24.64
2017-10-17T11:08:23.560Z,24.81
2017-10-17T11:09:24.181Z,24.68
2017-10-17T11:10:24.830Z,24.73
2017-10-17T11:11:25.453Z,24.88
2017-10-17T11:12:26.065Z,24.96
2017-10-17T11:13:26.682Z,24.88
2017-10-17T11:14:27.316Z,25.01
2017-10-17T11:15:27.933Z,25.04
2017-10-17T11:16:28.560Z,25.13
2017-10-17T11:17:29.183Z,25.10
2017-10-17T11:18:29.816Z,25.10
2017-10-17T11:19:30.453Z,25.18
2017-10-17T11:20:31.074Z,25.09
2017-10-17T11:21:31.688Z,25.16
2017-10-17T11:22:32.334Z,25.21
2017-10-17T11:23:32.950Z,25.29
2017-10-17T11:24:33.574Z,25.17
2017-10-17T11:25:34.206Z,25.24
2017-10-17T11:26:34.832Z,25.17
2017-10-17T11:27:35.812Z,25.38
2017-10-17T11:28:36.355Z,25.57
2017-10-17T11:29:36.984Z,25.69
2017-10-17T11:30:37.609Z,25.63
2017-10-17T11:31:38.235Z,25.41
2017-10-17T11:32:38.869Z,25.54
2017-10-17T11:33:39.514Z,25.47
2017-10-17T11:34:40.126Z,25.32
2017-10-17T11:35:40.877Z,25.35
2017-10-17T11:36:41.759Z,25.38
2017-10-17T11:37:42.384Z,25.44
2017-10-17T11:38:43.004Z,25.65
2017-10-17T11:39:43.634Z,25.47
2017-10-17T11:40:44.339Z,25.57
2017-10-17T11:41:44.951Z,25.62
2017-10-17T11:42:45.595Z,25.78
2017-10-17T11:43:46.231Z,25.75
2017-10-17T11:44:46.840Z,25.62
2017-10-17T11:45:47.471Z,25.63
2017-10-17T11:46:48.099Z,25.66
2017-10-17T11:47:48.726Z,25.81
2017-10-17T11:48:49.360Z,25.63
2017-10-17T11:49:49.974Z,25.46
2017-10-17T11:50:50.634Z,25.26
2017-10-17T11:51:51.245Z,25.11
2017-10-17T11:52:51.874Z,25.28
2017-10-17T11:53:52.497Z,25.53
2017-10-17T11:54:53.156Z,25.65
2017-10-17T11:55:53.757Z,25.53
2017-10-17T11:56:54.391Z,25.61
2017-10-17T11:57:55.030Z,25.69
2017-10-17T11:58:55.644Z,25.69
2017-10-17T11:59:56.543Z,25.54
2017-10-17T12:00:57.174Z,25.44
2017-10-17T12:01:57.804Z,25.35
2017-10-17T12:02:58.427Z,25.48
2017-10-17T12:03:59.062Z,25.44
2017-10-17T12:04:59.685Z,25.43
2017-10-17T12:06:00.318Z,25.63
2017-10-17T12:07:00.940Z,25.76
2017-10-17T12:08:01.565Z,25.95
2017-10-17T12:09:02.192Z,26.02
2017-10-17T12:10:02.830Z,25.81
2017-10-17T12:11:03.465Z,25.62
2017-10-17T12:12:04.101Z,25.41
2017-10-17T12:13:04.747Z,25.32
2017-10-17T12:14:05.380Z,25.29
2017-10-17T12:15:06.020Z,25.43
2017-10-17T12:16:06.644Z,25.54
2017-10-17T12:17:07.287Z,25.72
2017-10-17T12:18:07.915Z,25.72
2017-10-17T12:19:08.550Z,25.75
2017-10-17T12:20:09.187Z,25.76
2017-10-17T12:21:09.818Z,25.72
2017-10-17T12:22:10.444Z,25.75
2017-10-17T12:23:11.100Z,25.75
2017-10-17T12:24:11.714Z,25.88
2017-10-17T12:25:12.413Z,25.84
2017-10-17T12:26:13.046Z,25.84
2017-10-17T12:27:13.676Z,25.68
2017-10-17T12:28:14.315Z,25.54
2017-10-17T12:29:14.943Z,25.54
2017-10-17T12:30:15.571Z,25.75
2017-10-17T12:31:16.203Z,25.78
2017-10-17T12:32:16.848Z,25.76
2017-10-17T12:33:17.472Z,25.57
2017-10-17T12:34:18.096Z,25.31
2017-10-17T12:35:18.729Z,25.06
2017-10-17T12:36:19.370Z,24.95
2017-10-17T12:37:19.990Z,24.81
2017-10-17T12:38:20.628Z,25.02
2017-10-17T12:39:21.262Z,25.07
2017-10-17T12:40:21.888Z,25.10
2017-10-17T12:41:22.513Z,25.01
2017-10-17T12:42:23.139Z,24.96
2017-10-17T12:43:23.761Z,24.94
2017-10-17T12:44:24.396Z,25.01
2017-10-17T12:45:25.011Z,25.14
2017-10-17T12:46:25.642Z,25.16
2017-10-17T12:47:26.254Z,25.35
2017-10-17T12:48:26.877Z,25.44
2017-10-17T12:49:27.518Z,25.50
2017-10-17T12:50:28.165Z,25.41
2017-10-17T12:51:28.865Z,25.43
2017-10-17T12:52:29.501Z,25.48
2017-10-17T12:53:30.131Z,25.18
2017-10-17T12:54:30.761Z,25.13
2017-10-17T12:55:31.396Z,25.32
2017-10-17T12:56:32.027Z,25.56
2017-10-17T12:57:32.660Z,25.63
2017-10-17T12:58:33.294Z,25.71
2017-10-17T12:59:33.941Z,25.51
2017-10-17T13:00:34.563Z,25.43